Nelson, Wisconsin
Current Conditions -  °F | °C
As of 4:10 PM on Sunday 25 Jan 2015 (Local Time) from KRGK Reporting Station
Overcast Overcast  
Wind Chill: 18°   Ceiling: 2300
Heat Index: 25°   Visibility: 10mi
Dew Point: 14°   Wind: 6mph
Humidity: 64%   Direction: 80°E
Pressure: 30.04"   Gusts: NA
Location:  44.42°N, 92.01°W
Report Text: KRGK 252210Z AUTO 08005KT 10SM OVC023 M04/M10 A3004 RMK AO2
Loading
Personal Weather Stations






























Interactive Weather Map New forecast layout! Learn more

10-Day Weather Forecast

Advertisements
Track Severe Weather on mobile